WetterOnline ( http://www.wetteronline.de )

Wetter aktuell Norderney

Aktuelles Wetter: Norderney (16m)

6-stündlich | Neueste Meldungen
Ortszeit Temperatur Wetter
Di, 24.04. 2:00 11.3° C bedeckt
Mo, 23.04. 20:00 10.5° C bewölkt
Mo, 23.04. 14:00 11.6° C wolkenlos
Mo, 23.04. 8:00 9.9° C leicht bewölkt
Mo, 23.04. 2:00 12.3° C wolkig
So, 22.04. 20:00 19.4° C wolkig
So, 22.04. 14:00 20.2° C wolkig
So, 22.04. 8:00 9.7° C leicht bewölkt
Ortszeit Temperatur Wetter
Di, 24.04. 2:30 10.9° C wolkig
Di, 24.04. 2:20 10.9° C wolkig
Di, 24.04. 2:10 11.1° C bewölkt
Di, 24.04. 2:00 11.3° C bedeckt
Di, 24.04. 1:40 11.3° C bewölkt
Di, 24.04. 1:30 11.3° C wolkig
Di, 24.04. 1:00 11.4° C bedeckt
Di, 24.04. 0:30 11.4° C bewölkt
Di, 24.04. 0:00 11.5° C bedeckt
Mo, 23.04. 23:30 11.7° C bedeckt
Ortszeit Relative Feuchte Sichtweite
Di, 24.04. 2:00 78% 25 km
Mo, 23.04. 20:00 76% 21 km
Mo, 23.04. 14:00 77% 6 km
Mo, 23.04. 8:00 93% 4.2 km
Mo, 23.04. 2:00 83% 9 km
So, 22.04. 20:00 64% 26 km
So, 22.04. 14:00 44% 35 km
So, 22.04. 8:00 81% 12 km
Ortszeit Relative Feuchte Sichtweite
Di, 24.04. 2:30 82% 19 km
Di, 24.04. 2:20 82% -
Di, 24.04. 2:10 81% -
Di, 24.04. 2:00 78% 25 km
Di, 24.04. 1:40 78% -
Di, 24.04. 1:30 78% 22 km
Di, 24.04. 1:00 78% 23 km
Di, 24.04. 0:30 76% 26 km
Di, 24.04. 0:00 75% 30 km
Mo, 23.04. 23:30 74% 30 km
Ortszeit Niederschlagsmenge Niederschlagsart
Di, 24.04. 2:00 0.0 l/m2 in 6 Std. -
Mo, 23.04. 20:00 0.0 l/m2 in 12 Std. -
Mo, 23.04. 14:00 0.0 l/m2 in 6 Std. -
Mo, 23.04. 8:00 0.1 l/m2 in 12 Std. -
Mo, 23.04. 2:00 0.1 l/m2 in 6 Std. Regen
So, 22.04. 20:00 0.0 l/m2 in 12 Std. -
So, 22.04. 14:00 0.0 l/m2 in 6 Std. -
So, 22.04. 8:00 0.0 l/m2 in 12 Std. -
Ortszeit Niederschlagsmenge Niederschlagsart
Di, 24.04. 2:30 0.0 l/m2 in 1 Std. -
Di, 24.04. 2:20 keine Meldung -
Di, 24.04. 2:10 keine Meldung -
Di, 24.04. 2:00 0.0 l/m2 in 1 Std. -
Di, 24.04. 1:40 keine Meldung -
Di, 24.04. 1:30 0.0 l/m2 in 1 Std. -
Di, 24.04. 1:00 0.0 l/m2 in 1 Std. -
Di, 24.04. 0:30 0.0 l/m2 in 1 Std. -
Di, 24.04. 0:00 0.0 l/m2 in 1 Std. -
Mo, 23.04. 23:30 0.0 l/m2 in 1 Std. -
Ortszeit Stärke Spitze Richtung
km/h Bft. km/h Grad Sektor
Di, 24.04. 2:00 22 4 40 210° SW
Mo, 23.04. 20:00 26 4 44 260° W
Mo, 23.04. 14:00 30 5 46 260° W
Mo, 23.04. 8:00 19 3 39 270° W
Mo, 23.04. 2:00 14 3 43 270° W
So, 22.04. 20:00 7 2 32 90° O
So, 22.04. 14:00 18 3 32 110° O
So, 22.04. 8:00 13 3 20 130° SO
Ortszeit Stärke Spitze Richtung
km/h Bft. km/h Grad Sektor
Di, 24.04. 2:30 22 4 40 200° S
Di, 24.04. 2:20 22 4 - 200° S
Di, 24.04. 2:10 22 4 - 210° SW
Di, 24.04. 2:00 22 4 40 210° SW
Di, 24.04. 1:40 24 4 - 210° SW
Di, 24.04. 1:30 22 4 36 210° SW
Di, 24.04. 1:00 20 4 35 210° SW
Di, 24.04. 0:30 22 4 36 220° SW
Di, 24.04. 0:00 20 4 37 220° SW
Mo, 23.04. 23:30 22 4 37 230° SW
Ortszeit Untergrenze Bedeckung Gattung
total tief tief mittel hoch
Di, 24.04. 2:00 2100 m 8/8 8/8 - - -
Mo, 23.04. 20:00 5400 m 8/8 7/8 - - -
Mo, 23.04. 14:00 - 0/8 0/8 - - -
Mo, 23.04. 8:00 1500 m 2/8 2/8 - - -
Mo, 23.04. 2:00 7200 m 7/8 0/8 - - -
So, 22.04. 20:00 2400 m 7/8 1/8 - - -
So, 22.04. 14:00 4200 m 7/8 5/8 - - -
So, 22.04. 8:00 8100 m 5/8 0/8 - - -
Ortszeit Bedeckungsgrad in Achtel und Wolkenuntergrenze
Di, 24.04. 2:30 2(2100m) 8(3300m) 8(4800m)
Di, 24.04. 2:20 2(2100m) 8(3300m) 8(4800m)
Di, 24.04. 2:10 4(2100m) 8(3000m) 8(3900m)
Di, 24.04. 2:00 8(2100m) 8(3600m) 8(5700m)
Di, 24.04. 1:40 7(2400m) 8(3600m) 8(5700m)
Di, 24.04. 1:30 2(1290m) 7(3900m) 8(7800m)
Di, 24.04. 1:00 7(1260m) 8(2400m)
Di, 24.04. 0:30 7(1290m) 7(3000m) 8(9000m)
Di, 24.04. 0:00 8(1260m) 7(3000m) 8(9000m)
Mo, 23.04. 23:30 8(1260m) 8(6000m)
Ortszeit Luftdruck NN (hPa) Tendenz (hPa in 3 Std.)
Di, 24.04. 2:00 1012 - 1,8
Mo, 23.04. 20:00 1014 0,0
Mo, 23.04. 14:00 1014 + 1,4
Mo, 23.04. 8:00 1010 + 1,3
Mo, 23.04. 2:00 1008 + 0,3
So, 22.04. 20:00 1008 - 1,5
So, 22.04. 14:00 1012 - 2,7
So, 22.04. 8:00 1016 - 1,3
Ortszeit Luftdruck NN (hPa) Tendenz (hPa in 3 Std.)
Di, 24.04. 2:30 1012 - 2,0
Di, 24.04. 2:20 1012 keine Meldung
Di, 24.04. 2:10 1012 keine Meldung
Di, 24.04. 2:00 1012 - 1,8
Di, 24.04. 1:40 1012 keine Meldung
Di, 24.04. 1:30 1013 - 1,2
Di, 24.04. 1:00 1013 - 1,0
Di, 24.04. 0:30 1013 - 0,7
Di, 24.04. 0:00 1014 - 0,5
Mo, 23.04. 23:30 1014 - 0,3
Ortszeit Schneehöhe (cm)
Di, 24.04. 2:00 0
Mo, 23.04. 20:00 0
Mo, 23.04. 14:00 0
Mo, 23.04. 8:00 0
Mo, 23.04. 2:00 0
So, 22.04. 20:00 0
So, 22.04. 14:00 0
So, 22.04. 8:00 0
Ortszeit Schneehöhe (cm)
Di, 24.04. 2:30 0
Di, 24.04. 2:20 0
Di, 24.04. 2:10 0
Di, 24.04. 2:00 0
Di, 24.04. 1:40 0
Di, 24.04. 1:30 0
Di, 24.04. 1:00 0
Di, 24.04. 0:30 0
Di, 24.04. 0:00 0
Mo, 23.04. 23:30 0
Link zu dieser Seite / Seite empfehlen

Das Wetter in ...